• Join FlightAware (Why Join?)
  • Login
  • US Flag 
06:33AM EST


 

Airport Tracker/Info


-or-


 

Live Flight TrackerFlight Track Log ✈ UAL4434 ✈ 20-Aug-2013 ✈ KMCI - KEWR

Flight Track Log - Related Links

Times and Time Zones

All times are in EDT time to prevent confusion due to time zone crossing. See the UAL4434 flight status page for this flight to view local times or setup timezone preferences in your user account.

Time Position Orientation Groundspeed Altitude Reporting Facility
EDT Latitude Longitude Course Direction KTS MPH feet Rate Location/Type
07:06AM 39.2833 -94.7000 82° East 167 192 1,400  Level Kansas City TRACON
07:07AM 39.2881 -94.6508 83° East 176 203 2,700 1,980 Climbing Kansas City Center
07:08AM 39.2917 -94.5667 87° East 247 284 4,800 2,340 Climbing Kansas City Center
07:09AM 39.3061 -94.4756 78° East 267 307 7,500 2,640 Climbing Kansas City Center
07:10AM 39.3206 -94.3831 79° East 272 313 10,200 1,980 Climbing Kansas City Center
07:11AM 39.3674 -94.0764 82° East  Level FlightAware Approximate
07:11AM 39.3389 -94.2597 79° East 312 359 11,500  Level Kansas City Center
07:12AM 39.3583 -94.1350 79° East 364 419 12,900 1,500 Climbing Kansas City Center
07:13AM 39.3778 -94.0083 79° East 374 430 14,600 1,800 Climbing Kansas City Center
07:14AM 39.3989 -93.8575 80° East 382 440 16,600 1,860 Climbing Kansas City Center
07:15AM 39.4144 -93.7297 81° East 387 445 18,300 1,800 Climbing Kansas City Center
07:16AM 39.4319 -93.5956 80° East 383 441 20,300 2,040 Climbing Kansas City Center
07:17AM 39.4467 -93.4583 82° East 374 430 22,500 1,980 Climbing Kansas City Center
07:18AM 39.4631 -93.3358 80° East 368 423 24,300 1,920 Climbing Kansas City Center
07:19AM 39.4778 -93.2092 81° East 361 415 26,500 1,980 Climbing Kansas City Center
07:20AM 39.4925 -93.0839 81° East 358 412 28,400 1,740 Climbing Kansas City Center
07:21AM 39.5100 -92.9317 81° East 361 415 30,000 1,320 Climbing Kansas City Center
07:22AM 39.5247 -92.8011 82° East 366 421 31,200 1,140 Climbing Kansas City Center
07:23AM 39.5397 -92.6683 82° East 373 429 32,400 1,260 Climbing Kansas City Center
07:24AM 39.5558 -92.5297 81° East 384 442 33,700 1,080 Climbing Kansas City Center
07:25AM 39.5706 -92.3917 82° East 390 449 34,700 600 Climbing Kansas City Center
07:26AM 39.5867 -92.2506 82° East 395 455 35,000 120 Climbing Kansas City Center
07:27AM 39.6022 -92.1000 82° East 413 475 35,000  Level Kansas City Center
07:28AM 39.6200 -91.9425 82° East 435 501 35,000  Level Kansas City Center
07:29AM 39.6372 -91.7836 82° East 443 510 35,000  Level Kansas City Center
07:30AM 39.6575 -91.5958 82° East 445 512 35,000  Level Kansas City Center
07:31AM 39.6725 -91.4386 83° East 445 512 35,000  Level Kansas City Center
07:32AM 39.6897 -91.2736 82° East 447 514 35,000  Level Kansas City Center
07:33AM 39.7069 -91.1117 82° East 451 519 35,000  Level Kansas City Center
07:34AM 39.7219 -90.9514 83° East 449 517 35,000  Level Kansas City Center
07:35AM 39.7372 -90.7875 83° East 453 521 35,000  Level Kansas City Center
07:36AM 39.7528 -90.6358 82° East 457 526 35,000  Level Kansas City Center
07:37AM 39.7681 -90.4714 83° East 460 529 35,000  Level Kansas City Center
07:38AM 39.7839 -90.3061 83° East 461 531 35,000  Level Kansas City Center
07:39AM 39.7981 -90.1392 84° East 464 534 35,000  Level Kansas City Center
07:40AM 39.8158 -89.9397 83° East 465 535 35,000  Level Kansas City Center
07:41AM 39.8311 -89.7739 83° East 465 535 35,000  Level Kansas City Center
07:42AM 39.8408 -89.6081 86° East 463 533 35,000  Level Kansas City Center
07:43AM 39.8408 -89.4431 90° East 461 531 35,000  Level Kansas City Center
07:44AM 39.8414 -89.2764 90° East 461 531 35,000  Level Kansas City Center
07:45AM 39.8414 -89.1103 90° East 462 532 35,000  Level Kansas City Center
07:46AM 39.8428 -88.9433 89° East 462 532 35,000  Level Kansas City Center
07:47AM 39.8417 -88.7764 90° East 463 533 35,000  Level Kansas City Center
07:48AM 39.8417 -88.6078 90° East 466 536 35,000  Level Kansas City Center
07:49AM 39.8425 -88.4406 90° East 465 535 35,000  Level Kansas City Center
07:50AM 39.8417 -88.2706 90° East 469 540 35,000  Level Kansas City Center
07:51AM 39.8394 -88.0733 91° East 471 542 35,000  Level Indianapolis Center
07:52AM 39.8372 -87.9061 91° East 466 536 35,000  Level Indianapolis Center
07:53AM 39.8364 -87.7403 90° East 463 533 35,000  Level Indianapolis Center
07:54AM 39.8344 -87.5739 91° East 462 532 35,000  Level Indianapolis Center
07:55AM 39.8317 -87.4061 91° East 466 536 35,000  Level Indianapolis Center
07:56AM 39.8294 -87.2386 91° East 466 536 35,000  Level Indianapolis Center
07:57AM 39.8289 -87.0694 90° East 468 539 35,000  Level Indianapolis Center
07:58AM 39.8258 -86.9028 91° East 464 534 35,000  Level Indianapolis Center
07:59AM 39.8219 -86.7086 91° East 453 521 35,000  Level Indianapolis Center
08:00AM 39.8189 -86.5436 91° East 455 524 35,000  Level Indianapolis Center
08:01AM 39.8175 -86.3708 91° East 464 534 35,000  Level Indianapolis Center
08:02AM 39.8525 -86.1942 75° East 486 559 35,000  Level Indianapolis Center
08:03AM 39.8881 -86.0242 75° East 484 557 35,000  Level Indianapolis Center
08:04AM 39.9233 -85.8558 75° East 482 555 35,000  Level Indianapolis Center
08:05AM 39.9581 -85.6894 75° East 479 551 35,000  Level Indianapolis Center
08:06AM 39.9931 -85.5214 75° East 480 552 35,000  Level Indianapolis Center
08:07AM 40.0275 -85.3536 75° East 482 555 35,000  Level Indianapolis Center
08:09AM 40.0625 -85.1858 75° East 482 555 35,000  Level Indianapolis Center
08:10AM 40.1028 -84.9856 75° East 478 550 35,000  Level Indianapolis Center
08:11AM 40.1358 -84.8181 75° East 479 551 35,000  Level Indianapolis Center
08:12AM 40.1689 -84.6517 75° East 476 548 35,000  Level Indianapolis Center
08:13AM 40.2286 -84.4972 63° Northeast 483 556 35,000  Level Indianapolis Center
08:14AM 40.2903 -84.3464 62° Northeast 475 547 35,000  Level Indianapolis Center
08:15AM 40.3503 -84.1944 63° Northeast 473 544 35,000  Level Indianapolis Center
08:16AM 40.3939 -84.0333 70° East 470 541 35,000  Level Indianapolis Center
08:17AM 40.4481 -83.8469 69° East 471 542 35,000  Level Indianapolis Center
08:18AM 40.4931 -83.6842 70° East 470 541 35,000  Level Indianapolis Center
08:19AM 40.5394 -83.5239 69° East 468 539 35,000  Level Indianapolis Center
08:20AM 40.5844 -83.3608 70° East 470 541 35,000  Level Indianapolis Center
08:21AM 40.6311 -83.1983 69° East 472 543 35,000  Level Indianapolis Center
08:22AM 40.6767 -83.0342 70° East 473 544 35,000  Level Indianapolis Center
08:23AM 40.7217 -82.8689 70° East 474 545 35,000  Level Indianapolis Center
08:24AM 40.7669 -82.7036 70° East 475 547 35,000  Level Indianapolis Center
08:25AM 40.8200 -82.5114 70° East 475 547 35,000  Level Indianapolis Center
08:26AM 40.8639 -82.3458 71° East 475 547 35,000  Level Indianapolis Center
08:27AM 40.8978 -82.2119 71° East 463 533 35,000  Level Cleveland Center
08:28AM 40.9436 -82.0456 70° East 463 533 35,000  Level Cleveland Center
08:29AM 40.9853 -81.8814 71° East 463 533 35,000  Level Cleveland Center
08:30AM 41.0289 -81.7144 71° East 463 533 35,000  Level Cleveland Center
08:31AM 41.0742 -81.5500 70° East 468 539 35,000  Level Cleveland Center
08:32AM 41.1169 -81.3825 71° East 468 539 35,000  Level Cleveland Center
08:33AM 41.1597 -81.2175 71° East 468 539 35,000  Level Cleveland Center
08:34AM 41.2003 -81.0550 72° East 461 531 35,000  Level Cleveland Center
08:35AM 41.2425 -80.8953 71° East 466 536 35,000  Level Cleveland Center
08:36AM 41.2803 -80.7517 71° East 461 531 35,000  Level Cleveland Center
08:37AM 41.3222 -80.5831 72° East 466 536 35,000  Level Cleveland Center
08:38AM 41.3636 -80.4200 71° East 461 531 35,000  Level Cleveland Center
08:39AM 41.4072 -80.2536 71° East 461 531 35,000  Level Cleveland Center
08:40AM 41.4481 -80.0817 72° East 466 536 35,000  Level Cleveland Center
08:41AM 41.4869 -79.9206 72° East 466 536 35,000  Level Cleveland Center
08:42AM 41.5297 -79.7456 72° East 461 531 35,000  Level Cleveland Center
08:43AM 41.5678 -79.5786 73° East 461 531 35,000  Level Cleveland Center
08:44AM 41.6100 -79.4111 71° East 461 531 35,000  Level Cleveland Center
08:45AM 41.6353 -79.2386 79° East 466 536 35,000  Level Cleveland Center
08:46AM 41.6206 -79.0583 96° East 466 536 35,000  Level Cleveland Center
08:47AM 41.6014 -78.8811 98° East 476 548 35,000 -240 Level Cleveland Center
08:48AM 41.5861 -78.7036 97° East 476 548 34,600 -720 Descending Cleveland Center
08:49AM 41.5686 -78.5294 98° East 476 548 33,600 -1,020 Descending Cleveland Center
08:50AM 41.5506 -78.3550 98° East 476 548 32,600 -840 Descending Cleveland Center
08:52AM 41.5106 -77.9492 97° East 484 557 31,000 -540 Descending New York Center
08:53AM 41.4836 -77.7719 101° East 484 557 31,000  Level New York Center
08:54AM 41.4606 -77.5978 100° East 489 563 31,000 -420 Level New York Center
08:55AM 41.4322 -77.4011 101° East 489 563 30,200 -1,020 Descending New York Center
08:56AM 41.4056 -77.2408 102° East 495 570 29,000 -1,200 Descending New York Center
08:57AM 41.3797 -77.0639 101° East 495 570 27,800 -1,200 Descending New York Center
08:58AM 41.3536 -76.8847 101° East 495 570 26,600 -1,200 Descending New York Center
08:59AM 41.3186 -76.7131 105° East 495 570 25,400 -1,200 Descending New York Center
09:00AM 41.2747 -76.5461 109° East 484 557 24,200 -1,860 Descending New York Center
09:01AM 41.2325 -76.3853 109° East 473 544 21,700 -3,000 Descending New York Center
09:02AM 41.1883 -76.2161 109° East 450 518 18,200 -1,860 Descending New York Center
09:03AM 41.1522 -76.0892 111° Southeast 417 480 18,000 -600 Descending New York Center
09:04AM 41.1131 -75.9403 109° East 417 480 17,100 -1,860 Descending New York Center
09:05AM 41.0700 -75.7828 110° East 417 480 14,300 -2,100 Descending New York Center
09:06AM 41.0319 -75.6453 110° East 412 474 13,000 -660 Descending New York Center
09:07AM 40.9936 -75.5106 111° Southeast 396 456 13,000 -300 Level New York Center
09:08AM 40.9553 -75.3731 110° East 396 456 12,400 -1,200 Descending New York Center
09:09AM 40.9225 -75.2528 110° East 377 434 10,600 -1,500 Descending New York Center
09:10AM 40.8908 -75.1464 111° Southeast 341 392 9,500 -1,080 Descending New York Center
09:11AM 40.8653 -75.0542 110° East 295 339 8,500 -1,080 Descending New York Center
09:12AM 40.8381 -74.9400 107° East 295 339 7,400 -900 Descending New York Center
09:13AM 40.8147 -74.8344 106° East 300 345 6,800 -720 Descending New York Center
09:14AM 40.7908 -74.7372 108° East 290 334 6,000 -420 Descending New York Center
09:15AM 40.8061 -74.6531 76° East 250 288 6,000 -240 Level New York Center
09:16AM 40.8606 -74.5847 43° Northeast 246 283 5,600 -540 Descending New York Center
09:17AM 40.9108 -74.5108 48° Northeast 258 297 5,000 -300 Descending New York Center
09:18AM 40.9258 -74.4236 77° East 258 297 5,000 -120 Level New York Center
09:19AM 40.9356 -74.3144 83° East 264 304 4,800 -540 Descending New York Center
09:20AM 40.9339 -74.2264 91° East 270 311 4,000 -480 Descending New York Center
09:21AM 40.9322 -74.1411 91° East 252 290 3,900 -540 Descending New York Center
09:22AM 40.8714 -74.0861 146° Southeast 220 253 3,000 -660 Descending New York Center
09:23AM 40.8150 -74.0889 182° South 220 253 2,600 -780 Descending New York Center
09:24AM 40.7600 -74.1217 204° Southwest 220 253 1,500 -1,140 Descending New York Center